Terminal Aerodrome Forecast
Issued by NWS

Home | Current Version | Previous Version | Text Only | Print | Product List | Glossary On
Versions: 1 2 3 4 5 6 7 8 9 10 11 12 13 14 15 16 17 18 19
634
FTUS43 KAPX 282219 AAA
TAFPLN
TAF AMD
KPLN 282219Z 2822/2918 18009KT P6SM VCSH BKN035 OVC060
      WS020/19030KT
      TEMPO 2822/2824 4SM -SHRA OVC025
     FM290000 16010KT P6SM VCSH OVC025 WS020/19035KT
     FM290200 16011KT 4SM -SHRA BR OVC015 WS020/19040KT
     FM290900 21010KT P6SM VCSH OVC015 WS020/19040KT
     FM291200 23011KT 5SM BR BKN015
     FM291700 24013G21KT P6SM BKN020=

USA.gov is the U.S. government's official web portal to all federal, state and local government web resources and services.